createdAt,value
2022-07-30T15:19:18.011Z,97882.63
2022-07-30T15:24:44.004Z,97886.47
2022-07-30T15:30:18.794Z,97887.84
2022-07-30T16:00:41.175Z,97894.66
2022-07-30T16:05:53.041Z,97889.94
2022-07-30T16:10:56.392Z,97903.75
2022-07-30T16:15:57.794Z,97912.72
2022-07-30T16:21:01.269Z,97913.53
2022-07-30T16:26:12.156Z,97910.81
2022-07-30T16:31:13.508Z,97920.31
2022-07-30T16:36:14.905Z,97925.44
2022-07-30T16:41:16.237Z,97926.22
2022-07-30T16:46:19.078Z,97934.91
2022-07-30T16:51:20.835Z,97931.34
2022-07-30T16:56:22.472Z,97941.88
2022-07-30T17:01:23.905Z,97944.50
2022-07-30T17:06:25.532Z,97953.69
2022-07-30T17:11:47.574Z,97955.78
2022-07-30T17:16:48.360Z,97962.72
2022-07-30T17:21:49.762Z,97963.72
2022-07-30T17:26:51.161Z,97968.03
2022-07-30T17:31:52.618Z,97972.34
2022-07-30T17:36:57.010Z,97969.56
2022-07-30T17:42:06.713Z,97974.88
2022-07-30T17:47:14.157Z,97979.25
2022-07-30T17:52:17.644Z,97989.00
2022-07-30T17:57:20.173Z,97987.09
2022-07-30T18:02:28.550Z,97980.13
2022-07-30T18:07:30.615Z,97991.56
2022-07-30T18:12:31.941Z,97995.13
2022-07-30T18:17:33.745Z,97993.78
2022-07-30T18:22:35.073Z,97997.47
2022-07-30T18:27:37.868Z,98003.84
2022-07-30T18:32:39.238Z,98014.63
2022-07-30T18:37:41.749Z,98006.84
2022-07-30T18:42:43.291Z,98007.00
2022-07-30T18:47:45.240Z,98020.72
2022-07-30T18:52:46.691Z,98022.16
2022-07-30T18:57:52.165Z,98029.97
2022-07-30T19:02:53.866Z,98030.34
2022-07-30T19:07:57.316Z,98040.72
2022-07-30T19:13:00.512Z,98042.16
2022-07-30T19:18:01.904Z,98031.69
2022-07-30T19:23:04.304Z,98034.50
2022-07-30T19:28:05.726Z,98031.34
2022-07-30T19:33:14.021Z,98036.06
2022-07-30T19:38:23.803Z,98036.66
2022-07-30T19:43:25.312Z,98036.75
2022-07-30T19:53:52.362Z,98038.66
2022-07-30T19:58:53.867Z,98042.28
2022-07-30T20:03:55.512Z,98044.66
2022-07-30T20:09:02.692Z,98041.72
2022-07-30T20:14:05.600Z,98037.47
2022-07-30T20:19:07.894Z,98034.91
2022-07-30T20:24:09.526Z,98036.06
2022-07-30T20:34:32.534Z,98042.19
2022-07-30T20:39:34.094Z,98031.47
2022-07-30T20:44:36.921Z,98026.41
2022-07-30T20:49:39.722Z,98025.25
2022-07-30T20:54:43.824Z,98031.59
2022-07-30T20:59:46.694Z,98035.22
2022-07-30T21:04:48.217Z,98027.44
2022-07-30T21:09:52.550Z,98039.41
2022-07-30T21:14:54.201Z,98029.88
2022-07-30T21:19:55.619Z,98039.50
2022-07-30T21:24:57.059Z,98038.31
2022-07-30T21:29:58.487Z,98035.00
2022-07-30T21:35:01.612Z,98031.72
2022-07-30T21:40:10.113Z,98029.03
2022-07-30T21:45:11.518Z,98034.66
2022-07-30T22:34:41.561Z,98042.00
2022-07-30T22:46:14.957Z,98036.81
2022-07-30T22:52:09.127Z,98032.59
2022-07-30T22:57:37.962Z,98044.00
2022-07-30T23:02:40.410Z,98034.47
2022-07-30T23:07:42.722Z,98018.72
2022-07-30T23:12:15.153Z,98036.88
2022-07-30T23:12:18.142Z,98036.06
2022-07-30T23:12:45.411Z,98022.50
2022-07-30T23:17:47.585Z,98015.03
2022-07-30T23:22:49.242Z,98011.84
2022-07-30T23:27:51.949Z,98008.59
2022-07-30T23:32:53.658Z,97998.56
2022-07-30T23:37:55.302Z,97995.94
2022-07-30T23:42:57.926Z,97991.81
2022-07-30T23:48:02.615Z,97994.28
2022-07-30T23:53:04.981Z,97989.25
2022-07-30T23:58:09.405Z,97987.16
